createdAt,value
2017-08-16T00:00:37.956Z,53.73
2017-08-16T00:03:05.446Z,49.50
2017-08-16T00:05:32.968Z,48.37
2017-08-16T00:08:01.207Z,48.03
2017-08-16T00:10:28.748Z,50.37
2017-08-16T00:12:56.216Z,47.80
2017-08-16T00:15:23.714Z,48.03
2017-08-16T00:17:51.269Z,53.87
2017-08-16T00:20:18.739Z,47.20
2017-08-16T00:22:47.011Z,55.30
2017-08-16T00:25:15.372Z,54.77
2017-08-16T00:27:42.835Z,55.17
2017-08-16T00:30:10.316Z,47.90
2017-08-16T00:32:38.548Z,52.07
2017-08-16T00:35:06.046Z,48.90
2017-08-16T00:37:34.192Z,52.10
2017-08-16T00:40:01.674Z,55.77
2017-08-16T00:42:29.908Z,45.10
2017-08-16T00:44:57.388Z,53.60
2017-08-16T00:47:24.852Z,56.23
2017-08-16T00:49:52.318Z,51.23
2017-08-16T00:52:20.588Z,56.87
2017-08-16T00:54:49.879Z,57.47
2017-08-16T00:57:17.431Z,57.43
2017-08-16T00:59:44.987Z,55.50
2017-08-16T01:02:12.556Z,59.07
2017-08-16T01:04:40.106Z,63.53
2017-08-16T01:07:08.564Z,56.63
2017-08-16T01:09:36.037Z,62.10
2017-08-16T01:12:03.525Z,55.07
2017-08-16T01:14:31.003Z,58.40
2017-08-16T01:16:59.300Z,68.47
2017-08-16T01:19:26.804Z,69.67
2017-08-16T01:21:55.704Z,69.40
2017-08-16T01:24:23.960Z,63.67
2017-08-16T01:26:51.520Z,75.57
2017-08-16T01:29:19.078Z,80.13
2017-08-16T01:31:46.547Z,98.13
2017-08-16T01:34:14.784Z,90.30
2017-08-16T01:36:42.279Z,77.27
2017-08-16T01:39:10.502Z,78.50
2017-08-16T01:41:37.979Z,61.90
2017-08-16T01:44:05.467Z,72.13
2017-08-16T01:46:33.744Z,74.40
2017-08-16T01:49:01.981Z,81.70
2017-08-16T01:51:29.579Z,98.13
2017-08-16T01:53:57.812Z,92.63
2017-08-16T01:56:25.310Z,90.43
2017-08-16T01:58:53.565Z,123.77
2017-08-16T02:01:21.132Z,105.23
2017-08-16T02:03:49.274Z,95.63
2017-08-16T02:06:16.767Z,94.63
2017-08-16T02:08:45.720Z,101.23
2017-08-16T02:11:13.198Z,110.57
2017-08-16T02:13:40.667Z,114.00
2017-08-16T02:16:08.143Z,116.40
2017-08-16T02:18:36.380Z,111.90
2017-08-16T02:21:03.851Z,97.70
2017-08-16T02:23:31.416Z,115.10
2017-08-16T02:25:59.692Z,118.30
2017-08-16T02:28:28.490Z,108.70
2017-08-16T02:30:56.723Z,102.40
2017-08-16T02:33:24.196Z,99.90
2017-08-16T02:35:51.671Z,99.80
2017-08-16T02:38:19.938Z,104.13
2017-08-16T02:40:47.499Z,111.90
2017-08-16T02:43:15.059Z,96.10
2017-08-16T02:45:43.965Z,102.47
2017-08-16T02:48:12.210Z,94.67
2017-08-16T02:50:39.694Z,117.57
2017-08-16T02:53:07.937Z,101.83
2017-08-16T02:55:35.518Z,96.70
2017-08-16T02:58:02.994Z,102.10
2017-08-16T03:00:31.279Z,96.83
2017-08-16T03:02:58.816Z,79.80
2017-08-16T03:05:27.091Z,75.50
2017-08-16T03:07:55.327Z,67.00
2017-08-16T03:10:22.800Z,72.00
2017-08-16T03:12:50.278Z,57.43
2017-08-16T03:15:19.263Z,74.00
2017-08-16T03:17:46.822Z,68.73
2017-08-16T03:20:15.162Z,70.37
2017-08-16T03:22:42.706Z,64.77
2017-08-16T03:25:10.165Z,76.70
2017-08-16T03:27:37.676Z,95.93
2017-08-16T03:30:05.915Z,73.70
2017-08-16T03:32:33.408Z,77.50
2017-08-16T03:35:00.888Z,98.30
2017-08-16T03:37:28.383Z,87.27
2017-08-16T03:39:55.925Z,106.30
2017-08-16T03:42:23.440Z,150.30
2017-08-16T03:44:51.677Z,100.00
2017-08-16T03:47:19.154Z,99.90
2017-08-16T03:49:46.635Z,110.37
2017-08-16T03:52:15.133Z,117.50
2017-08-16T03:54:43.363Z,147.87
2017-08-16T03:57:10.891Z,140.50
2017-08-16T03:59:38.395Z,119.83
2017-08-16T04:02:06.633Z,136.30
2017-08-16T04:04:34.117Z,113.50
2017-08-16T04:07:01.588Z,131.10
2017-08-16T04:09:29.870Z,106.40
2017-08-16T04:11:58.203Z,78.57
2017-08-16T04:14:25.700Z,71.10
2017-08-16T04:16:54.102Z,79.50
2017-08-16T04:19:21.636Z,74.63
2017-08-16T04:21:49.866Z,59.60
2017-08-16T04:24:17.345Z,62.40
2017-08-16T04:26:44.919Z,68.47
2017-08-16T04:29:12.480Z,65.47
2017-08-16T04:31:40.080Z,77.07
2017-08-16T04:34:07.586Z,71.90
2017-08-16T04:36:35.062Z,77.50
2017-08-16T04:39:03.356Z,70.90
2017-08-16T04:41:30.891Z,67.50
2017-08-16T04:43:59.139Z,87.47
2017-08-16T04:46:26.644Z,80.07
2017-08-16T04:48:55.611Z,62.47
2017-08-16T04:51:23.855Z,94.90
2017-08-16T04:53:51.344Z,83.93
2017-08-16T04:56:18.817Z,72.80
2017-08-16T04:58:47.055Z,80.40
2017-08-16T05:01:14.641Z,73.90
2017-08-16T05:03:42.896Z,76.40
2017-08-16T05:06:10.376Z,72.67
2017-08-16T05:08:39.362Z,79.23
2017-08-16T05:11:07.620Z,75.93
2017-08-16T05:13:35.195Z,72.70
2017-08-16T05:16:02.743Z,63.00
2017-08-16T05:18:30.218Z,55.60
2017-08-16T05:20:58.458Z,61.53
2017-08-16T05:23:26.042Z,74.47
2017-08-16T05:25:53.650Z,78.43
2017-08-16T05:28:21.165Z,74.20
2017-08-16T05:30:49.428Z,68.67
2017-08-16T05:33:16.912Z,81.27
2017-08-16T05:35:44.395Z,67.50
2017-08-16T05:38:11.884Z,66.03
2017-08-16T05:40:39.462Z,71.83
2017-08-16T05:43:06.953Z,64.67
2017-08-16T05:45:34.435Z,72.57
2017-08-16T05:48:01.914Z,60.30
2017-08-16T05:50:29.404Z,67.90
2017-08-16T05:52:57.665Z,59.70
2017-08-16T05:55:25.135Z,57.03
2017-08-16T05:57:53.377Z,61.30
2017-08-16T06:00:20.846Z,63.77
2017-08-16T06:02:48.325Z,59.90
2017-08-16T06:05:16.560Z,62.67
2017-08-16T06:07:44.051Z,63.53
2017-08-16T06:10:12.299Z,65.30
2017-08-16T06:12:39.792Z,67.53
2017-08-16T06:15:08.034Z,70.87
2017-08-16T06:17:35.515Z,59.40
2017-08-16T06:20:03.756Z,53.00
2017-08-16T06:22:31.224Z,53.67
2017-08-16T06:24:59.496Z,61.10
2017-08-16T06:27:26.964Z,60.23
2017-08-16T06:29:54.539Z,51.70
2017-08-16T06:32:22.028Z,50.27
2017-08-16T06:34:49.559Z,49.93
2017-08-16T06:37:18.618Z,49.80
2017-08-16T06:39:46.082Z,47.87
2017-08-16T06:42:13.575Z,45.90
2017-08-16T06:44:41.811Z,45.50
2017-08-16T06:47:09.386Z,42.47
2017-08-16T06:49:36.948Z,43.23
2017-08-16T06:52:04.504Z,44.50
2017-08-16T06:54:31.980Z,43.97
2017-08-16T06:56:59.447Z,38.90
2017-08-16T06:59:26.915Z,39.80
2017-08-16T07:01:54.644Z,38.80
2017-08-16T07:04:22.112Z,38.03
2017-08-16T07:06:50.353Z,35.90
2017-08-16T07:09:17.851Z,38.20
2017-08-16T07:11:45.387Z,35.70
2017-08-16T07:14:13.686Z,34.27
2017-08-16T07:16:41.989Z,33.63
2017-08-16T07:19:09.504Z,31.90
2017-08-16T07:21:38.632Z,33.33
2017-08-16T07:24:06.098Z,33.57
2017-08-16T07:26:33.674Z,30.30
2017-08-16T07:29:01.174Z,30.13
2017-08-16T07:31:29.406Z,30.50
2017-08-16T07:33:56.888Z,28.90
2017-08-16T07:36:24.459Z,27.77
2017-08-16T07:38:52.723Z,31.70
2017-08-16T07:41:20.294Z,30.33
2017-08-16T07:43:48.567Z,29.37
2017-08-16T07:46:16.031Z,25.43
2017-08-16T07:48:44.310Z,27.40
2017-08-16T07:51:12.569Z,26.57
2017-08-16T07:53:40.031Z,25.17
2017-08-16T07:56:08.184Z,25.03
2017-08-16T07:58:35.645Z,26.90
2017-08-16T08:01:03.227Z,25.70
2017-08-16T08:03:30.713Z,24.70
2017-08-16T08:05:58.241Z,22.13
2017-08-16T08:08:26.481Z,23.77
2017-08-16T08:10:54.515Z,23.77
2017-08-16T08:13:22.691Z,24.07
2017-08-16T08:15:50.261Z,21.27
2017-08-16T08:18:17.826Z,23.17
2017-08-16T08:20:45.299Z,22.70
2017-08-16T08:23:12.764Z,21.63
2017-08-16T08:25:40.562Z,20.50
2017-08-16T08:28:08.798Z,21.13
2017-08-16T08:30:36.275Z,19.53
2017-08-16T08:33:03.754Z,20.13
2017-08-16T08:35:32.012Z,20.50
2017-08-16T08:37:59.488Z,19.37
2017-08-16T08:40:27.732Z,19.20
2017-08-16T08:42:55.209Z,19.70
2017-08-16T08:45:23.443Z,18.17
2017-08-16T08:47:50.921Z,18.70
2017-08-16T08:50:18.490Z,20.80
2017-08-16T08:52:46.673Z,17.67
2017-08-16T08:55:14.960Z,16.90
2017-08-16T08:57:43.217Z,17.33
2017-08-16T09:00:10.776Z,14.83
2017-08-16T09:02:39.023Z,15.77
2017-08-16T09:05:06.488Z,17.00
2017-08-16T09:07:34.384Z,15.97
2017-08-16T09:10:02.619Z,15.20
2017-08-16T09:12:30.097Z,13.07
2017-08-16T09:14:57.560Z,15.00
2017-08-16T09:17:25.840Z,13.93
2017-08-16T09:19:54.075Z,13.50
2017-08-16T09:22:21.549Z,12.30
2017-08-16T09:24:49.032Z,12.27
2017-08-16T09:27:17.268Z,12.97
2017-08-16T09:29:44.758Z,13.10
2017-08-16T09:32:12.239Z,12.30
2017-08-16T09:34:39.710Z,12.20
2017-08-16T09:37:07.202Z,11.80
2017-08-16T09:39:34.667Z,9.70
2017-08-16T09:42:02.249Z,11.17
2017-08-16T09:44:29.697Z,9.17
2017-08-16T09:46:57.991Z,8.70
2017-08-16T09:49:25.461Z,8.93
2017-08-16T09:51:52.936Z,7.93
2017-08-16T09:54:20.423Z,8.13
2017-08-16T09:56:47.902Z,7.57
2017-08-16T09:59:15.461Z,8.00
2017-08-16T10:01:42.934Z,7.87
2017-08-16T10:04:11.172Z,8.37
2017-08-16T10:06:38.634Z,8.60
2017-08-16T10:09:06.100Z,8.73
2017-08-16T10:11:34.230Z,9.07
2017-08-16T10:14:01.737Z,6.60
2017-08-16T10:16:29.221Z,6.23
2017-08-16T10:18:56.753Z,6.93
2017-08-16T10:21:25.023Z,7.30
2017-08-16T10:23:52.788Z,7.07
2017-08-16T10:26:20.316Z,7.67
2017-08-16T10:28:47.799Z,6.90
2017-08-16T10:31:15.316Z,8.57
2017-08-16T10:33:42.772Z,7.93
2017-08-16T10:36:10.284Z,8.50
2017-08-16T10:38:38.547Z,7.27
2017-08-16T10:41:06.014Z,6.93
2017-08-16T10:43:34.244Z,7.80
2017-08-16T10:46:01.741Z,7.53
2017-08-16T10:48:29.994Z,9.10
2017-08-16T10:50:57.461Z,7.70
2017-08-16T10:53:25.083Z,9.80
2017-08-16T10:55:52.544Z,8.70
2017-08-16T10:58:20.001Z,8.03
2017-08-16T11:00:48.171Z,8.73
2017-08-16T11:03:15.626Z,6.73
2017-08-16T11:05:43.132Z,6.27
2017-08-16T11:08:10.893Z,5.50
2017-08-16T11:10:39.062Z,5.63
2017-08-16T11:13:06.623Z,5.43
2017-08-16T11:15:34.947Z,5.20
2017-08-16T11:18:02.498Z,3.70
2017-08-16T11:20:30.303Z,5.00
2017-08-16T11:22:57.780Z,5.30
2017-08-16T11:25:25.254Z,4.93
2017-08-16T11:27:53.525Z,4.90
2017-08-16T11:30:21.796Z,4.80
2017-08-16T11:32:49.363Z,4.40
2017-08-16T11:35:17.639Z,4.30
2017-08-16T11:37:45.932Z,4.70
2017-08-16T11:40:13.447Z,4.40
2017-08-16T11:42:41.019Z,4.10
2017-08-16T11:45:08.485Z,5.20
2017-08-16T11:47:36.776Z,4.00
2017-08-16T11:50:04.247Z,5.43
2017-08-16T11:52:31.724Z,5.37
2017-08-16T11:54:59.200Z,5.70
2017-08-16T11:57:26.688Z,4.80
2017-08-16T11:59:54.235Z,4.50
2017-08-16T12:02:21.705Z,4.37
2017-08-16T12:04:50.004Z,3.80
2017-08-16T12:07:17.730Z,3.70
2017-08-16T12:09:45.303Z,4.20
2017-08-16T12:12:13.589Z,5.30
2017-08-16T12:14:42.072Z,4.50
2017-08-16T12:17:09.612Z,4.13
2017-08-16T12:19:37.065Z,4.53
2017-08-16T12:22:04.615Z,4.23
2017-08-16T12:24:32.075Z,4.70
2017-08-16T12:26:59.548Z,5.23
2017-08-16T12:29:28.096Z,3.80
2017-08-16T12:31:55.579Z,1.80
2017-08-16T12:34:23.852Z,1.80
2017-08-16T12:36:52.116Z,1.80
2017-08-16T12:39:19.573Z,1.40
2017-08-16T12:41:47.056Z,1.70
2017-08-16T12:44:15.324Z,2.20
2017-08-16T12:46:43.586Z,2.63
2017-08-16T12:49:11.139Z,3.13
2017-08-16T12:51:38.605Z,2.83
2017-08-16T12:54:06.066Z,2.70
2017-08-16T12:56:33.536Z,2.37
2017-08-16T12:59:01.804Z,1.70
2017-08-16T13:01:30.033Z,2.97
2017-08-16T13:03:57.502Z,3.20
2017-08-16T13:06:24.984Z,3.20
2017-08-16T13:08:52.576Z,2.77
2017-08-16T13:11:20.105Z,3.30
2017-08-16T13:13:47.660Z,3.13
2017-08-16T13:16:15.886Z,2.63
2017-08-16T13:18:43.491Z,3.00
2017-08-16T13:21:11.045Z,2.40
2017-08-16T13:23:39.448Z,2.07
2017-08-16T13:26:07.691Z,1.47
2017-08-16T13:28:35.980Z,1.73
2017-08-16T13:31:03.540Z,1.40
2017-08-16T13:33:31.095Z,0.97
2017-08-16T13:35:58.663Z,1.20
2017-08-16T13:38:26.940Z,1.50
2017-08-16T13:40:55.211Z,1.30
2017-08-16T13:43:23.439Z,0.93
2017-08-16T13:45:50.941Z,1.97
2017-08-16T13:48:18.501Z,1.80
2017-08-16T13:50:46.777Z,2.03
2017-08-16T13:53:15.760Z,2.60
2017-08-16T13:55:43.230Z,1.80
2017-08-16T13:58:11.503Z,2.00
2017-08-16T14:00:39.055Z,1.87
2017-08-16T14:03:06.609Z,2.00
2017-08-16T14:05:34.078Z,2.10
2017-08-16T14:08:02.311Z,2.07
2017-08-16T14:10:29.972Z,2.23
2017-08-16T14:12:57.459Z,2.13
2017-08-16T14:15:24.914Z,2.33
2017-08-16T14:17:52.471Z,1.90
2017-08-16T14:20:19.933Z,1.50
2017-08-16T14:22:47.387Z,1.80
2017-08-16T14:25:15.155Z,1.63
2017-08-16T14:27:42.716Z,1.60
2017-08-16T14:30:10.272Z,2.13
2017-08-16T14:32:37.731Z,2.40
2017-08-16T14:35:05.967Z,1.83
2017-08-16T14:37:33.419Z,2.00
2017-08-16T14:40:00.972Z,2.60
2017-08-16T14:42:28.426Z,2.50
2017-08-16T14:44:55.885Z,2.00
2017-08-16T14:47:23.792Z,2.53
2017-08-16T14:49:51.252Z,2.23
2017-08-16T14:52:18.707Z,1.80
2017-08-16T14:54:46.475Z,1.57
2017-08-16T14:57:13.960Z,1.90
2017-08-16T14:59:41.415Z,2.13
2017-08-16T15:02:08.946Z,1.97
2017-08-16T15:04:37.175Z,1.47
2017-08-16T15:07:04.647Z,1.03
2017-08-16T15:09:32.114Z,1.20
2017-08-16T15:11:59.572Z,1.03
2017-08-16T15:14:27.052Z,1.00
2017-08-16T15:16:55.325Z,1.27
2017-08-16T15:19:22.876Z,1.57
2017-08-16T15:21:50.340Z,1.20
2017-08-16T15:24:18.580Z,1.10
2017-08-16T15:26:46.086Z,1.63
2017-08-16T15:29:14.348Z,1.17
2017-08-16T15:31:41.816Z,1.50
2017-08-16T15:34:10.265Z,1.50
2017-08-16T15:36:37.716Z,1.50
2017-08-16T15:39:05.192Z,1.37
2017-08-16T15:41:32.662Z,1.40
2017-08-16T15:44:00.148Z,1.30
2017-08-16T15:46:27.640Z,1.10
2017-08-16T15:48:55.134Z,1.10
2017-08-16T15:51:23.411Z,1.27
2017-08-16T15:53:51.669Z,1.13
2017-08-16T15:56:20.033Z,1.20
2017-08-16T15:58:47.516Z,1.53
2017-08-16T16:01:15.858Z,1.13
2017-08-16T16:03:43.354Z,1.47
2017-08-16T16:06:11.619Z,1.00
2017-08-16T16:08:39.078Z,1.30
2017-08-16T16:11:07.312Z,1.50
2017-08-16T16:13:34.788Z,1.20
2017-08-16T16:16:02.271Z,1.30
2017-08-16T16:18:29.828Z,1.20
2017-08-16T16:20:58.068Z,1.40
2017-08-16T16:23:25.697Z,1.53
2017-08-16T16:25:53.177Z,1.40
2017-08-16T16:28:20.681Z,1.80
2017-08-16T16:30:48.920Z,1.40
2017-08-16T16:33:16.406Z,1.60
2017-08-16T16:35:43.869Z,1.57
2017-08-16T16:38:12.107Z,1.83
2017-08-16T16:40:39.582Z,1.63
2017-08-16T16:43:07.151Z,1.27
2017-08-16T16:45:34.637Z,2.20
2017-08-16T16:48:02.089Z,1.53
2017-08-16T16:50:29.619Z,2.03
2017-08-16T16:52:57.098Z,2.20
2017-08-16T16:55:25.440Z,2.13
2017-08-16T16:57:52.964Z,2.10
2017-08-16T17:00:20.471Z,2.00
2017-08-16T17:02:47.932Z,1.73
2017-08-16T17:05:16.198Z,1.83
2017-08-16T17:07:44.478Z,2.10
2017-08-16T17:10:11.939Z,2.10
2017-08-16T17:12:40.184Z,2.30
2017-08-16T17:15:07.643Z,2.60
2017-08-16T17:17:35.136Z,2.67
2017-08-16T17:20:03.404Z,2.50
2017-08-16T17:22:31.676Z,2.53
2017-08-16T17:24:59.909Z,2.10
2017-08-16T17:27:27.507Z,3.00
2017-08-16T17:29:55.843Z,3.10
2017-08-16T17:32:23.339Z,3.20
2017-08-16T17:34:51.727Z,2.80
2017-08-16T17:37:19.965Z,3.10
2017-08-16T17:39:47.432Z,3.17
2017-08-16T17:42:14.920Z,3.10
2017-08-16T17:44:43.264Z,2.90
2017-08-16T17:47:10.837Z,3.43
2017-08-16T17:49:38.295Z,6.13
2017-08-16T17:52:06.009Z,7.77
2017-08-16T17:54:33.505Z,8.60
2017-08-16T17:57:01.008Z,8.70
2017-08-16T17:59:28.784Z,7.00
2017-08-16T18:01:56.315Z,7.67
2017-08-16T18:04:24.536Z,8.47
2017-08-16T18:06:52.029Z,7.07
2017-08-16T18:09:19.602Z,7.30
2017-08-16T18:11:47.828Z,6.97
2017-08-16T18:14:15.308Z,6.87
2017-08-16T18:16:42.774Z,7.00
2017-08-16T18:19:10.337Z,6.90
2017-08-16T18:21:38.509Z,6.57
2017-08-16T18:24:06.072Z,6.97
2017-08-16T18:26:34.303Z,5.70
2017-08-16T18:29:01.813Z,6.47
2017-08-16T18:31:29.359Z,7.20
2017-08-16T18:33:56.924Z,6.53
2017-08-16T18:36:24.510Z,5.53
2017-08-16T18:38:52.784Z,8.00
2017-08-16T18:41:20.314Z,5.30
2017-08-16T18:43:48.643Z,5.70
2017-08-16T18:46:16.156Z,6.00
2017-08-16T18:48:44.392Z,5.90
2017-08-16T18:51:11.877Z,5.50
2017-08-16T18:53:39.344Z,6.00
2017-08-16T18:56:07.623Z,5.70
2017-08-16T18:58:35.869Z,5.13
2017-08-16T19:01:03.333Z,5.60
2017-08-16T19:03:30.816Z,5.70
2017-08-16T19:05:59.068Z,5.20
2017-08-16T19:08:26.527Z,4.80
2017-08-16T19:10:54.003Z,4.80
2017-08-16T19:13:22.271Z,5.60
2017-08-16T19:15:51.159Z,5.50
2017-08-16T19:18:19.431Z,5.63
2017-08-16T19:20:47.191Z,5.07
2017-08-16T19:23:15.437Z,5.80
2017-08-16T19:25:42.939Z,5.63
2017-08-16T19:28:11.528Z,4.63
2017-08-16T19:30:39.808Z,4.50
2017-08-16T19:33:08.041Z,4.47
2017-08-16T19:35:35.574Z,5.67
2017-08-16T19:38:03.044Z,5.20
2017-08-16T19:40:30.527Z,4.73
2017-08-16T19:42:58.042Z,5.13
2017-08-16T19:45:25.515Z,5.30
2017-08-16T19:47:53.050Z,5.00
2017-08-16T19:50:20.557Z,4.40
2017-08-16T19:52:48.022Z,5.27
2017-08-16T19:55:15.485Z,5.57
2017-08-16T19:57:44.113Z,5.30
2017-08-16T20:00:11.737Z,5.63
2017-08-16T20:02:39.967Z,5.90
2017-08-16T20:05:07.774Z,5.70
2017-08-16T20:07:36.189Z,5.40
2017-08-16T20:10:03.706Z,5.90
2017-08-16T20:12:31.203Z,6.97
2017-08-16T20:14:58.673Z,7.00
2017-08-16T20:17:26.150Z,8.03
2017-08-16T20:19:53.624Z,8.90
2017-08-16T20:22:21.994Z,9.40
2017-08-16T20:24:49.460Z,7.70
2017-08-16T20:27:17.746Z,7.90
2017-08-16T20:29:45.993Z,8.60
2017-08-16T20:32:13.460Z,9.57
2017-08-16T20:34:40.948Z,10.07
2017-08-16T20:37:08.421Z,10.27
2017-08-16T20:39:36.452Z,9.40
2017-08-16T20:42:04.824Z,10.70
2017-08-16T20:44:32.401Z,10.17
2017-08-16T20:46:59.898Z,13.03
2017-08-16T20:49:27.384Z,10.40
2017-08-16T20:51:54.851Z,10.80
2017-08-16T20:54:22.332Z,11.60
2017-08-16T20:56:50.608Z,11.13
2017-08-16T20:59:18.872Z,11.83
2017-08-16T21:01:47.152Z,13.80
2017-08-16T21:04:16.331Z,11.93
2017-08-16T21:06:43.926Z,13.70
2017-08-16T21:09:11.390Z,13.30
2017-08-16T21:11:38.914Z,13.40
2017-08-16T21:14:06.377Z,13.20
2017-08-16T21:16:34.634Z,18.57
2017-08-16T21:19:02.200Z,15.47
2017-08-16T21:21:29.684Z,13.83
2017-08-16T21:23:57.912Z,13.80
2017-08-16T21:26:25.486Z,12.07
2017-08-16T21:28:52.956Z,13.90
2017-08-16T21:31:21.231Z,16.30
2017-08-16T21:33:49.484Z,14.07
2017-08-16T21:36:17.083Z,16.13
2017-08-16T21:38:44.641Z,14.17
2017-08-16T21:41:12.146Z,16.23
2017-08-16T21:43:39.691Z,12.10
2017-08-16T21:46:07.242Z,13.90
2017-08-16T21:48:34.725Z,14.60
2017-08-16T21:51:02.192Z,15.23
2017-08-16T21:53:29.654Z,16.00
2017-08-16T21:55:57.139Z,15.70
2017-08-16T21:58:25.383Z,16.07
2017-08-16T22:00:52.951Z,21.40
2017-08-16T22:03:20.823Z,18.17
2017-08-16T22:05:49.065Z,22.13
2017-08-16T22:08:16.547Z,20.40
2017-08-16T22:10:44.029Z,23.00
2017-08-16T22:13:12.270Z,17.60
2017-08-16T22:15:39.839Z,20.40
2017-08-16T22:18:07.315Z,20.33
2017-08-16T22:20:35.563Z,18.43
2017-08-16T22:23:03.033Z,17.00
2017-08-16T22:25:31.292Z,17.80
2017-08-16T22:27:59.583Z,19.70
2017-08-16T22:30:27.075Z,20.17
2017-08-16T22:32:54.627Z,16.17
2017-08-16T22:35:22.091Z,18.37
2017-08-16T22:37:49.557Z,19.20
2017-08-16T22:40:17.027Z,18.60
2017-08-16T22:42:44.531Z,19.80
2017-08-16T22:45:12.803Z,17.97
2017-08-16T22:47:40.365Z,19.60
2017-08-16T22:50:08.632Z,22.20
2017-08-16T22:52:36.615Z,24.80
2017-08-16T22:55:04.868Z,22.80
2017-08-16T22:57:32.431Z,24.10
2017-08-16T22:59:59.903Z,22.43
2017-08-16T23:02:28.170Z,25.23
2017-08-16T23:04:56.448Z,25.80
2017-08-16T23:07:24.684Z,22.90
2017-08-16T23:09:52.160Z,23.27
2017-08-16T23:12:19.640Z,20.30
2017-08-16T23:14:47.863Z,21.90
2017-08-16T23:17:15.371Z,23.33
2017-08-16T23:19:43.653Z,20.70
2017-08-16T23:22:11.878Z,25.57
2017-08-16T23:24:39.351Z,22.70
2017-08-16T23:27:06.834Z,22.07
2017-08-16T23:29:34.383Z,23.50
2017-08-16T23:32:01.863Z,21.80
2017-08-16T23:34:30.119Z,22.63
2017-08-16T23:36:57.589Z,29.00
2017-08-16T23:39:26.158Z,27.30
2017-08-16T23:41:53.725Z,25.63
2017-08-16T23:44:22.003Z,25.37
2017-08-16T23:46:50.241Z,25.40
2017-08-16T23:49:17.713Z,27.77
2017-08-16T23:51:45.279Z,26.97
2017-08-16T23:54:12.764Z,25.43
2017-08-16T23:56:40.237Z,23.60
2017-08-16T23:59:07.753Z,25.50
